sensor_id;sensor_type;location;lat;lon;timestamp;pressure;altitude;pressure_sealevel;temperature;humidity
29215;BME280;16252;49.816;7.964;2022-09-02T00:01:50;100083.13;;;21.77;39.77
29215;BME280;16252;49.816;7.964;2022-09-02T00:04:21;100099.69;;;21.91;39.86
29215;BME280;16252;49.816;7.964;2022-09-02T00:06:49;100091.78;;;21.81;39.88
29215;BME280;16252;49.816;7.964;2022-09-02T00:09:17;100084.06;;;21.70;39.76
29215;BME280;16252;49.816;7.964;2022-09-02T00:11:44;100097.34;;;21.73;39.58
29215;BME280;16252;49.816;7.964;2022-09-02T00:14:14;100090.19;;;21.72;40.15
29215;BME280;16252;49.816;7.964;2022-09-02T00:16:40;100088.22;;;21.66;40.13
29215;BME280;16252;49.816;7.964;2022-09-02T00:21:34;100072.97;;;21.41;40.09
29215;BME280;16252;49.816;7.964;2022-09-02T00:24:01;100085.03;;;21.47;40.16
29215;BME280;16252;49.816;7.964;2022-09-02T00:26:27;100042.22;;;21.18;40.27
29215;BME280;16252;49.816;7.964;2022-09-02T00:28:52;100077.72;;;21.25;40.13
29215;BME280;16252;49.816;7.964;2022-09-02T00:31:18;100070.28;;;21.18;40.35
29215;BME280;16252;49.816;7.964;2022-09-02T00:33:44;100070.00;;;21.13;40.51
29215;BME280;16252;49.816;7.964;2022-09-02T00:36:09;100065.84;;;21.03;40.66
29215;BME280;16252;49.816;7.964;2022-09-02T00:38:34;100063.66;;;20.98;40.66
29215;BME280;16252;49.816;7.964;2022-09-02T00:41:03;100079.44;;;21.03;40.83
29215;BME280;16252;49.816;7.964;2022-09-02T00:46:10;100080.34;;;20.95;40.88
29215;BME280;16252;49.816;7.964;2022-09-02T00:48:38;100075.94;;;20.94;40.92
29215;BME280;16252;49.816;7.964;2022-09-02T00:51:06;100070.94;;;20.83;40.92
29215;BME280;16252;49.816;7.964;2022-09-02T00:53:32;100060.97;;;20.75;41.12
29215;BME280;16252;49.816;7.964;2022-09-02T00:55:57;100067.06;;;20.77;41.09
29215;BME280;16252;49.816;7.964;2022-09-02T00:58:28;100068.44;;;20.73;41.32
29215;BME280;16252;49.816;7.964;2022-09-02T01:00:55;100064.44;;;20.69;41.07
29215;BME280;16252;49.816;7.964;2022-09-02T01:03:22;100066.84;;;20.64;41.31
29215;BME280;16252;49.816;7.964;2022-09-02T01:05:49;100067.84;;;20.63;41.35
29215;BME280;16252;49.816;7.964;2022-09-02T01:08:20;100063.16;;;20.56;41.40
29215;BME280;16252;49.816;7.964;2022-09-02T01:10:49;100060.63;;;20.47;41.39
29215;BME280;16252;49.816;7.964;2022-09-02T01:13:18;100066.72;;;20.49;41.51
29215;BME280;16252;49.816;7.964;2022-09-02T01:15:47;100052.03;;;20.35;41.40
29215;BME280;16252;49.816;7.964;2022-09-02T01:18:17;100073.72;;;20.43;41.38
29215;BME280;16252;49.816;7.964;2022-09-02T01:20:43;100063.63;;;20.60;40.01
29215;BME280;16252;49.816;7.964;2022-09-02T01:23:08;100044.31;;;20.24;41.18
29215;BME280;16252;49.816;7.964;2022-09-02T01:25:34;100050.63;;;20.16;41.35
29215;BME280;16252;49.816;7.964;2022-09-02T01:28:05;100065.22;;;20.15;41.63
29215;BME280;16252;49.816;7.964;2022-09-02T01:30:31;100070.84;;;20.13;41.66
29215;BME280;16252;49.816;7.964;2022-09-02T01:32:57;100051.88;;;19.97;41.57
29215;BME280;16252;49.816;7.964;2022-09-02T01:35:22;100058.84;;;20.00;41.79
29215;BME280;16252;49.816;7.964;2022-09-02T01:37:48;100050.25;;;19.88;41.82
29215;BME280;16252;49.816;7.964;2022-09-02T01:40:15;100059.03;;;19.90;41.96
29215;BME280;16252;49.816;7.964;2022-09-02T01:42:42;100049.25;;;19.81;42.12
29215;BME280;16252;49.816;7.964;2022-09-02T01:45:07;100065.69;;;19.87;42.12
29215;BME280;16252;49.816;7.964;2022-09-02T01:47:34;100061.31;;;19.78;42.15
29215;BME280;16252;49.816;7.964;2022-09-02T01:50:00;100040.13;;;19.65;42.22
29215;BME280;16252;49.816;7.964;2022-09-02T01:52:27;100054.88;;;19.71;42.19
29215;BME280;16252;49.816;7.964;2022-09-02T01:54:53;100069.97;;;19.74;42.32
29215;BME280;16252;49.816;7.964;2022-09-02T01:57:19;100067.25;;;19.65;42.39
29215;BME280;16252;49.816;7.964;2022-09-02T01:59:44;100069.13;;;19.65;42.08
29215;BME280;16252;49.816;7.964;2022-09-02T02:02:11;100055.09;;;19.53;42.04
29215;BME280;16252;49.816;7.964;2022-09-02T02:04:36;100059.16;;;19.49;42.06
29215;BME280;16252;49.816;7.964;2022-09-02T02:07:02;100062.72;;;19.49;42.05
29215;BME280;16252;49.816;7.964;2022-09-02T02:09:28;100038.69;;;19.30;42.30
29215;BME280;16252;49.816;7.964;2022-09-02T02:11:53;100066.13;;;19.43;42.36
29215;BME280;16252;49.816;7.964;2022-09-02T02:14:18;100051.75;;;19.35;42.19
29215;BME280;16252;49.816;7.964;2022-09-02T02:16:44;100052.94;;;19.32;42.30
29215;BME280;16252;49.816;7.964;2022-09-02T02:19:10;100032.97;;;19.17;42.29
29215;BME280;16252;49.816;7.964;2022-09-02T02:21:35;100049.22;;;19.25;42.27
29215;BME280;16252;49.816;7.964;2022-09-02T02:24:00;100048.53;;;19.23;42.18
29215;BME280;16252;49.816;7.964;2022-09-02T02:26:27;100043.81;;;19.17;42.19
29215;BME280;16252;49.816;7.964;2022-09-02T02:28:53;100052.94;;;19.16;42.04
29215;BME280;16252;49.816;7.964;2022-09-02T02:31:18;100044.47;;;19.11;42.12
29215;BME280;16252;49.816;7.964;2022-09-02T02:33:43;100057.88;;;19.12;42.05
29215;BME280;16252;49.816;7.964;2022-09-02T02:36:09;100038.41;;;18.92;42.42
29215;BME280;16252;49.816;7.964;2022-09-02T02:38:36;100057.22;;;19.02;42.86
29215;BME280;16252;49.816;7.964;2022-09-02T02:41:01;100060.78;;;18.94;42.54
29215;BME280;16252;49.816;7.964;2022-09-02T02:43:29;100045.19;;;18.80;42.83
29215;BME280;16252;49.816;7.964;2022-09-02T02:45:55;100052.81;;;18.84;42.45
29215;BME280;16252;49.816;7.964;2022-09-02T02:48:20;100067.53;;;18.82;42.32
29215;BME280;16252;49.816;7.964;2022-09-02T02:50:46;100054.28;;;18.71;42.17
29215;BME280;16252;49.816;7.964;2022-09-02T02:53:11;100031.22;;;18.50;42.25
29215;BME280;16252;49.816;7.964;2022-09-02T02:55:37;100070.19;;;18.57;42.08
29215;BME280;16252;49.816;7.964;2022-09-02T02:58:03;100062.72;;;18.43;42.34
29215;BME280;16252;49.816;7.964;2022-09-02T03:00:30;100073.53;;;18.43;42.54
29215;BME280;16252;49.816;7.964;2022-09-02T03:02:59;100069.13;;;18.34;42.53
29215;BME280;16252;49.816;7.964;2022-09-02T03:05:25;100073.88;;;18.32;42.71
29215;BME280;16252;49.816;7.964;2022-09-02T03:07:50;100045.72;;;18.08;42.64
29215;BME280;16252;49.816;7.964;2022-09-02T03:10:17;100070.31;;;18.23;42.78
29215;BME280;16252;49.816;7.964;2022-09-02T03:12:42;100046.38;;;18.10;43.16
29215;BME280;16252;49.816;7.964;2022-09-02T03:15:13;100059.97;;;18.18;43.12
29215;BME280;16252;49.816;7.964;2022-09-02T03:17:40;100074.84;;;18.23;43.07
29215;BME280;16252;49.816;7.964;2022-09-02T03:20:06;100066.72;;;18.23;43.22
29215;BME280;16252;49.816;7.964;2022-09-02T03:22:32;100047.41;;;18.09;43.57
29215;BME280;16252;49.816;7.964;2022-09-02T03:24:57;100058.44;;;18.16;42.76
29215;BME280;16252;49.816;7.964;2022-09-02T03:27:23;100059.78;;;18.20;43.26
29215;BME280;16252;49.816;7.964;2022-09-02T03:29:48;100065.38;;;18.18;42.71
29215;BME280;16252;49.816;7.964;2022-09-02T03:32:13;100060.59;;;18.12;42.89
29215;BME280;16252;49.816;7.964;2022-09-02T03:34:39;100070.75;;;18.10;42.65
29215;BME280;16252;49.816;7.964;2022-09-02T03:37:05;100051.41;;;17.97;42.85
29215;BME280;16252;49.816;7.964;2022-09-02T03:39:31;100049.53;;;17.89;43.37
29215;BME280;16252;49.816;7.964;2022-09-02T03:41:56;100062.91;;;17.91;43.44
29215;BME280;16252;49.816;7.964;2022-09-02T03:44:21;100036.13;;;17.80;43.82
29215;BME280;16252;49.816;7.964;2022-09-02T03:46:46;100053.75;;;17.84;43.57
29215;BME280;16252;49.816;7.964;2022-09-02T03:49:12;100042.84;;;17.75;43.23
29215;BME280;16252;49.816;7.964;2022-09-02T03:51:41;100037.94;;;17.71;43.44
29215;BME280;16252;49.816;7.964;2022-09-02T03:54:07;100058.22;;;18.01;41.97
29215;BME280;16252;49.816;7.964;2022-09-02T03:56:33;100060.25;;;17.73;43.08
29215;BME280;16252;49.816;7.964;2022-09-02T03:58:59;100053.25;;;17.62;43.17
29215;BME280;16252;49.816;7.964;2022-09-02T04:01:24;100059.00;;;17.59;43.19
29215;BME280;16252;49.816;7.964;2022-09-02T04:03:52;100052.59;;;17.60;43.29
29215;BME280;16252;49.816;7.964;2022-09-02T04:06:19;100065.25;;;17.60;43.31
29215;BME280;16252;49.816;7.964;2022-09-02T04:08:46;100063.06;;;17.55;43.14
29215;BME280;16252;49.816;7.964;2022-09-02T04:11:15;100064.22;;;17.52;43.27
29215;BME280;16252;49.816;7.964;2022-09-02T04:13:42;100052.81;;;17.41;43.45
29215;BME280;16252;49.816;7.964;2022-09-02T04:16:10;100037.50;;;17.23;43.35
29215;BME280;16252;49.816;7.964;2022-09-02T04:18:36;100039.44;;;17.13;43.27
29215;BME280;16252;49.816;7.964;2022-09-02T04:21:02;100045.88;;;17.12;43.31
29215;BME280;16252;49.816;7.964;2022-09-02T04:23:28;100029.84;;;16.93;43.68
29215;BME280;16252;49.816;7.964;2022-09-02T04:25:54;100047.28;;;16.98;43.66
29215;BME280;16252;49.816;7.964;2022-09-02T04:28:20;100063.03;;;17.03;43.72
29215;BME280;16252;49.816;7.964;2022-09-02T04:30:45;100050.63;;;16.92;43.80
29215;BME280;16252;49.816;7.964;2022-09-02T04:33:12;100040.75;;;16.83;43.86
29215;BME280;16252;49.816;7.964;2022-09-02T04:35:45;100063.81;;;16.95;44.11
29215;BME280;16252;49.816;7.964;2022-09-02T04:38:12;100040.13;;;16.71;43.95
29215;BME280;16252;49.816;7.964;2022-09-02T04:40:43;100027.78;;;16.68;44.07
29215;BME280;16252;49.816;7.964;2022-09-02T04:43:09;100030.38;;;16.60;43.91
29215;BME280;16252;49.816;7.964;2022-09-02T04:45:34;100031.09;;;16.62;44.20
29215;BME280;16252;49.816;7.964;2022-09-02T04:48:02;100049.91;;;16.72;44.28
29215;BME280;16252;49.816;7.964;2022-09-02T04:50:28;100044.13;;;16.67;44.22
29215;BME280;16252;49.816;7.964;2022-09-02T04:52:53;100050.22;;;16.69;44.06
29215;BME280;16252;49.816;7.964;2022-09-02T04:55:18;100051.22;;;16.68;44.17
29215;BME280;16252;49.816;7.964;2022-09-02T04:57:44;100042.34;;;16.58;44.29
29215;BME280;16252;49.816;7.964;2022-09-02T05:00:09;100048.13;;;16.63;44.37
29215;BME280;16252;49.816;7.964;2022-09-02T05:02:35;100048.69;;;16.66;44.59
29215;BME280;16252;49.816;7.964;2022-09-02T05:05:00;100048.13;;;16.63;44.15
29215;BME280;16252;49.816;7.964;2022-09-02T05:07:25;100042.22;;;16.59;44.31
29215;BME280;16252;49.816;7.964;2022-09-02T05:09:58;100038.50;;;16.60;44.27
29215;BME280;16252;49.816;7.964;2022-09-02T05:12:24;100055.72;;;16.59;44.17
29215;BME280;16252;49.816;7.964;2022-09-02T05:14:51;100060.56;;;16.56;44.26
29215;BME280;16252;49.816;7.964;2022-09-02T05:17:17;100050.38;;;16.50;44.23
29215;BME280;16252;49.816;7.964;2022-09-02T05:19:43;100047.44;;;16.43;44.50
29215;BME280;16252;49.816;7.964;2022-09-02T05:22:08;100063.34;;;16.46;44.38
29215;BME280;16252;49.816;7.964;2022-09-02T05:24:34;100053.59;;;16.35;44.83
29215;BME280;16252;49.816;7.964;2022-09-02T05:26:59;100042.03;;;16.25;44.70
29215;BME280;16252;49.816;7.964;2022-09-02T05:29:25;100062.00;;;16.32;44.78
29215;BME280;16252;49.816;7.964;2022-09-02T05:31:50;100070.69;;;16.36;45.00
29215;BME280;16252;49.816;7.964;2022-09-02T05:34:17;100053.38;;;16.29;45.00
29215;BME280;16252;49.816;7.964;2022-09-02T05:36:43;100061.56;;;16.37;45.30
29215;BME280;16252;49.816;7.964;2022-09-02T05:39:08;100028.31;;;16.18;45.59
29215;BME280;16252;49.816;7.964;2022-09-02T05:41:34;100044.53;;;16.36;45.31
29215;BME280;16252;49.816;7.964;2022-09-02T05:44:00;100046.91;;;16.39;45.67
29215;BME280;16252;49.816;7.964;2022-09-02T05:46:27;100065.69;;;16.59;45.71
29215;BME280;16252;49.816;7.964;2022-09-02T05:48:53;100068.75;;;16.64;45.40
29215;BME280;16252;49.816;7.964;2022-09-02T05:51:45;100063.28;;;16.74;45.34
29215;BME280;16252;49.816;7.964;2022-09-02T05:54:17;100074.56;;;16.87;45.66
29215;BME280;16252;49.816;7.964;2022-09-02T05:56:45;100073.72;;;16.86;45.92
29215;BME280;16252;49.816;7.964;2022-09-02T05:59:11;100055.69;;;16.77;45.82
29215;BME280;16252;49.816;7.964;2022-09-02T06:01:37;100059.34;;;16.86;45.52
29215;BME280;16252;49.816;7.964;2022-09-02T06:04:04;100052.50;;;16.92;45.91
29215;BME280;16252;49.816;7.964;2022-09-02T06:06:30;100066.13;;;17.08;45.69
29215;BME280;16252;49.816;7.964;2022-09-02T06:08:56;100058.00;;;17.08;46.24
29215;BME280;16252;49.816;7.964;2022-09-02T06:11:22;100050.34;;;17.03;45.90
29215;BME280;16252;49.816;7.964;2022-09-02T06:13:49;100064.00;;;17.20;46.08
29215;BME280;16252;49.816;7.964;2022-09-02T06:16:17;100073.00;;;17.28;45.90
29215;BME280;16252;49.816;7.964;2022-09-02T06:18:43;100061.81;;;17.23;46.01
29215;BME280;16252;49.816;7.964;2022-09-02T06:21:09;99925.47;;;16.47;46.20
29215;BME280;16252;49.816;7.964;2022-09-02T06:23:36;99940.09;;;16.63;46.29
29215;BME280;16252;49.816;7.964;2022-09-02T06:26:05;100068.50;;;17.63;44.63
29215;BME280;16252;49.816;7.964;2022-09-02T06:28:31;99941.25;;;16.78;45.51
29215;BME280;16252;49.816;7.964;2022-09-02T06:30:57;100078.25;;;17.56;45.97
29215;BME280;16252;49.816;7.964;2022-09-02T06:33:23;99934.84;;;16.79;46.27
29215;BME280;16252;49.816;7.964;2022-09-02T06:35:48;99970.19;;;17.12;46.26
29215;BME280;16252;49.816;7.964;2022-09-02T06:38:14;99969.19;;;17.21;46.27
29215;BME280;16252;49.816;7.964;2022-09-02T06:40:48;100036.91;;;17.72;46.29
29215;BME280;16252;49.816;7.964;2022-09-02T06:43:14;100011.13;;;17.60;46.16
29215;BME280;16252;49.816;7.964;2022-09-02T06:45:43;99922.06;;;17.24;46.20
29215;BME280;16252;49.816;7.964;2022-09-02T06:48:09;100008.66;;;17.74;46.25
29215;BME280;16252;49.816;7.964;2022-09-02T06:50:44;99995.72;;;17.86;45.83
29215;BME280;16252;49.816;7.964;2022-09-02T06:53:18;100042.03;;;18.26;46.01
29215;BME280;16252;49.816;7.964;2022-09-02T06:55:44;99922.31;;;17.47;45.60
29215;BME280;16252;49.816;7.964;2022-09-02T06:58:10;99961.03;;;17.82;45.97
29215;BME280;16252;49.816;7.964;2022-09-02T07:00:39;99917.13;;;17.62;45.92
29215;BME280;16252;49.816;7.964;2022-09-02T07:03:09;99969.03;;;18.08;45.76
29215;BME280;16252;49.816;7.964;2022-09-02T07:08:27;99990.25;;;18.37;45.37
29215;BME280;16252;49.816;7.964;2022-09-02T07:10:53;99962.63;;;18.25;45.63
29215;BME280;16252;49.816;7.964;2022-09-02T07:13:21;99959.44;;;18.38;45.54
29215;BME280;16252;49.816;7.964;2022-09-02T07:15:46;99904.41;;;18.05;45.68
29215;BME280;16252;49.816;7.964;2022-09-02T07:18:12;99947.41;;;18.32;45.53
29215;BME280;16252;49.816;7.964;2022-09-02T07:20:46;99976.53;;;18.63;45.38
29215;BME280;16252;49.816;7.964;2022-09-02T07:23:13;99941.13;;;18.48;45.35
29215;BME280;16252;49.816;7.964;2022-09-02T07:25:38;100038.72;;;19.14;45.42
29215;BME280;16252;49.816;7.964;2022-09-02T07:28:05;99905.28;;;18.46;45.33
29215;BME280;16252;49.816;7.964;2022-09-02T07:30:31;99962.16;;;18.87;45.47
29215;BME280;16252;49.816;7.964;2022-09-02T07:32:56;99928.63;;;18.80;45.20
29215;BME280;16252;49.816;7.964;2022-09-02T07:35:31;99910.84;;;18.77;45.09
29215;BME280;16252;49.816;7.964;2022-09-02T07:37:57;100035.06;;;19.62;45.11
29215;BME280;16252;49.816;7.964;2022-09-02T07:40:23;99977.31;;;19.37;44.93
29215;BME280;16252;49.816;7.964;2022-09-02T07:42:48;99929.53;;;19.20;44.88
29215;BME280;16252;49.816;7.964;2022-09-02T07:45:14;99910.06;;;19.16;45.00
29215;BME280;16252;49.816;7.964;2022-09-02T07:47:40;99991.75;;;19.77;44.90
29215;BME280;16252;49.816;7.964;2022-09-02T07:50:05;99974.50;;;19.70;44.87
29215;BME280;16252;49.816;7.964;2022-09-02T07:52:31;99937.16;;;19.64;44.61
29215;BME280;16252;49.816;7.964;2022-09-02T07:54:56;99974.66;;;20.00;44.52
29215;BME280;16252;49.816;7.964;2022-09-02T07:57:22;99978.84;;;20.10;44.46
29215;BME280;16252;49.816;7.964;2022-09-02T07:59:47;99893.06;;;19.70;44.65
29215;BME280;16252;49.816;7.964;2022-09-02T08:02:14;99978.97;;;20.40;44.05
29215;BME280;16252;49.816;7.964;2022-09-02T08:04:47;99912.16;;;20.08;43.87
29215;BME280;16252;49.816;7.964;2022-09-02T08:07:13;99881.13;;;20.02;43.63
29215;BME280;16252;49.816;7.964;2022-09-02T08:09:38;99933.28;;;20.44;43.60
29215;BME280;16252;49.816;7.964;2022-09-02T08:12:04;99944.31;;;20.65;43.43
29215;BME280;16252;49.816;7.964;2022-09-02T08:14:30;99987.78;;;21.03;42.99
29215;BME280;16252;49.816;7.964;2022-09-02T08:16:56;99977.69;;;21.12;43.09
29215;BME280;16252;49.816;7.964;2022-09-02T08:19:23;99983.13;;;21.27;42.47
29215;BME280;16252;49.816;7.964;2022-09-02T08:21:49;99936.50;;;21.15;42.58
29215;BME280;16252;49.816;7.964;2022-09-02T08:24:14;99964.78;;;21.43;42.07
29215;BME280;16252;49.816;7.964;2022-09-02T08:26:40;99893.16;;;21.13;41.83
29215;BME280;16252;49.816;7.964;2022-09-02T08:29:07;99952.47;;;21.62;41.55
29215;BME280;16252;49.816;7.964;2022-09-02T08:31:33;99891.38;;;21.35;41.39
29215;BME280;16252;49.816;7.964;2022-09-02T08:33:59;99916.69;;;21.66;41.07
29215;BME280;16252;49.816;7.964;2022-09-02T08:36:25;99972.63;;;22.19;41.00
29215;BME280;16252;49.816;7.964;2022-09-02T08:38:51;99941.06;;;22.10;40.69
29215;BME280;16252;49.816;7.964;2022-09-02T08:41:32;99943.88;;;22.38;40.60
29215;BME280;16252;49.816;7.964;2022-09-02T08:44:01;99938.91;;;22.42;40.31
29215;BME280;16252;49.816;7.964;2022-09-02T08:46:31;99882.97;;;22.24;40.05
29215;BME280;16252;49.816;7.964;2022-09-02T08:49:06;100019.31;;;23.24;39.67
29215;BME280;16252;49.816;7.964;2022-09-02T08:52:12;99951.06;;;22.96;40.13
29215;BME280;16252;49.816;7.964;2022-09-02T08:54:49;99979.44;;;23.23;39.40
29215;BME280;16252;49.816;7.964;2022-09-02T08:57:16;99986.69;;;23.44;39.96
29215;BME280;16252;49.816;7.964;2022-09-02T08:59:42;99938.56;;;23.36;40.20
29215;BME280;16252;49.816;7.964;2022-09-02T09:07:27;99936.63;;;24.93;40.11
29215;BME280;16252;49.816;7.964;2022-09-02T09:15:26;99946.06;;;28.31;37.87
29215;BME280;16252;49.816;7.964;2022-09-02T09:17:57;99889.31;;;29.07;36.18
29215;BME280;16252;49.816;7.964;2022-09-02T09:20:25;99899.94;;;30.08;34.70
29215;BME280;16252;49.816;7.964;2022-09-02T09:22:55;99882.09;;;30.95;33.61
29215;BME280;16252;49.816;7.964;2022-09-02T09:25:21;99918.91;;;32.06;31.93
29215;BME280;16252;49.816;7.964;2022-09-02T09:27:57;99928.75;;;32.88;31.12
29215;BME280;16252;49.816;7.964;2022-09-02T09:30:24;99944.22;;;33.64;29.84
29215;BME280;16252;49.816;7.964;2022-09-02T09:32:54;99979.44;;;34.52;29.86
29215;BME280;16252;49.816;7.964;2022-09-02T09:35:22;99922.78;;;34.73;28.30
29215;BME280;16252;49.816;7.964;2022-09-02T09:37:52;99929.38;;;35.29;27.80
29215;BME280;16252;49.816;7.964;2022-09-02T09:42:45;99875.97;;;35.92;26.56
29215;BME280;16252;49.816;7.964;2022-09-02T09:50:32;99942.22;;;37.32;24.37
29215;BME280;16252;49.816;7.964;2022-09-02T09:53:17;99883.44;;;37.28;25.78
29215;BME280;16252;49.816;7.964;2022-09-02T09:55:58;99930.00;;;37.76;23.21
29215;BME280;16252;49.816;7.964;2022-09-02T09:58:36;99923.38;;;37.91;24.16
29215;BME280;16252;49.816;7.964;2022-09-02T10:01:32;99981.78;;;38.49;24.77
29215;BME280;16252;49.816;7.964;2022-09-02T10:04:03;99936.44;;;38.33;22.84
29215;BME280;16252;49.816;7.964;2022-09-02T10:11:30;99972.94;;;38.94;23.19
29215;BME280;16252;49.816;7.964;2022-09-02T10:14:01;99894.00;;;38.50;23.19
29215;BME280;16252;49.816;7.964;2022-09-02T10:19:11;99972.81;;;39.18;21.30
29215;BME280;16252;49.816;7.964;2022-09-02T10:27:14;99931.00;;;38.94;21.79
29215;BME280;16252;49.816;7.964;2022-09-02T10:29:54;99858.06;;;38.44;20.93
29215;BME280;16252;49.816;7.964;2022-09-02T10:32:41;99870.59;;;38.46;21.88
29215;BME280;16252;49.816;7.964;2022-09-02T10:35:42;99953.28;;;38.99;20.17
29215;BME280;16252;49.816;7.964;2022-09-02T10:38:44;99946.75;;;39.04;20.76
29215;BME280;16252;49.816;7.964;2022-09-02T10:46:43;99874.94;;;38.85;19.19
29215;BME280;16252;49.816;7.964;2022-09-02T10:49:36;99864.94;;;38.98;21.04
29215;BME280;16252;49.816;7.964;2022-09-02T10:54:59;99908.38;;;39.51;19.10
29215;BME280;16252;49.816;7.964;2022-09-02T11:00:17;99874.44;;;39.52;19.85
29215;BME280;16252;49.816;7.964;2022-09-02T11:02:50;99841.09;;;39.42;18.76
29215;BME280;16252;49.816;7.964;2022-09-02T11:05:22;99806.47;;;39.24;19.18
29215;BME280;16252;49.816;7.964;2022-09-02T11:07:57;99901.78;;;39.83;18.19
29215;BME280;16252;49.816;7.964;2022-09-02T11:10:28;99813.00;;;39.33;17.93
29215;BME280;16252;49.816;7.964;2022-09-02T11:13:01;99889.13;;;39.85;18.55
29215;BME280;16252;49.816;7.964;2022-09-02T11:15:45;99887.66;;;39.88;18.25
29215;BME280;16252;49.816;7.964;2022-09-02T11:23:49;99869.50;;;39.08;17.11
29215;BME280;16252;49.816;7.964;2022-09-02T11:26:16;99826.78;;;38.09;17.67
29215;BME280;16252;49.816;7.964;2022-09-02T11:29:02;99871.06;;;37.78;18.59
29215;BME280;16252;49.816;7.964;2022-09-02T11:31:38;99827.22;;;36.92;18.72
29215;BME280;16252;49.816;7.964;2022-09-02T11:36:39;99808.94;;;35.88;18.86
29215;BME280;16252;49.816;7.964;2022-09-02T11:39:11;99854.38;;;35.78;19.34
29215;BME280;16252;49.816;7.964;2022-09-02T11:42:09;99805.16;;;35.14;20.11
29215;BME280;16252;49.816;7.964;2022-09-02T11:55:40;99727.78;;;32.65;20.07
29215;BME280;16252;49.816;7.964;2022-09-02T11:58:06;99738.69;;;32.39;20.49
29215;BME280;16252;49.816;7.964;2022-09-02T12:00:34;99741.06;;;32.21;20.88
29215;BME280;16252;49.816;7.964;2022-09-02T12:07:55;99704.44;;;31.44;20.91
29215;BME280;16252;49.816;7.964;2022-09-02T12:13:11;99772.59;;;31.55;21.50
29215;BME280;16252;49.816;7.964;2022-09-02T12:18:44;99807.41;;;31.56;21.26
29215;BME280;16252;49.816;7.964;2022-09-02T12:21:14;99799.47;;;31.38;21.91
29215;BME280;16252;49.816;7.964;2022-09-02T12:28:48;99817.59;;;31.28;21.63
29215;BME280;16252;49.816;7.964;2022-09-02T12:31:17;99673.03;;;30.35;22.00
29215;BME280;16252;49.816;7.964;2022-09-02T12:44:55;99808.41;;;31.01;22.44
29215;BME280;16252;49.816;7.964;2022-09-02T12:47:57;99808.84;;;30.93;22.31
29215;BME280;16252;49.816;7.964;2022-09-02T12:50:49;99727.56;;;30.28;22.18
29215;BME280;16252;49.816;7.964;2022-09-02T12:53:35;99796.16;;;30.75;22.38
29215;BME280;16252;49.816;7.964;2022-09-02T12:56:15;99694.97;;;29.91;22.34
29215;BME280;16252;49.816;7.964;2022-09-02T12:58:53;99760.81;;;30.38;22.54
29215;BME280;16252;49.816;7.964;2022-09-02T13:15:33;99773.44;;;30.17;22.42
29215;BME280;16252;49.816;7.964;2022-09-02T13:21:18;99762.75;;;30.03;22.55
29215;BME280;16252;49.816;7.964;2022-09-02T13:24:11;99742.84;;;29.85;22.74
29215;BME280;16252;49.816;7.964;2022-09-02T13:27:07;99659.84;;;29.35;22.77
29215;BME280;16252;49.816;7.964;2022-09-02T13:29:54;99752.88;;;30.08;23.14
29215;BME280;16252;49.816;7.964;2022-09-02T13:32:24;99666.09;;;29.31;22.55
29215;BME280;16252;49.816;7.964;2022-09-02T13:34:53;99669.44;;;29.33;22.93
29215;BME280;16252;49.816;7.964;2022-09-02T13:37:29;99715.53;;;29.66;22.77
29215;BME280;16252;49.816;7.964;2022-09-02T13:39:55;99711.56;;;29.62;22.98
29215;BME280;16252;49.816;7.964;2022-09-02T13:42:27;99648.38;;;29.27;22.78
29215;BME280;16252;49.816;7.964;2022-09-02T13:45:15;99564.25;;;28.90;23.20
29215;BME280;16252;49.816;7.964;2022-09-02T13:47:42;99725.22;;;29.69;22.83
29215;BME280;16252;49.816;7.964;2022-09-02T13:50:10;99701.69;;;29.49;22.86
29215;BME280;16252;49.816;7.964;2022-09-02T13:52:37;99643.69;;;29.10;23.17
29215;BME280;16252;49.816;7.964;2022-09-02T13:55:03;99720.25;;;29.54;23.19
29215;BME280;16252;49.816;7.964;2022-09-02T13:57:30;99721.34;;;29.53;23.13
29215;BME280;16252;49.816;7.964;2022-09-02T13:59:56;99716.88;;;29.52;22.96
29215;BME280;16252;49.816;7.964;2022-09-02T14:02:33;99717.56;;;29.59;23.20
29215;BME280;16252;49.816;7.964;2022-09-02T14:05:19;99723.69;;;29.61;23.15
29215;BME280;16252;49.816;7.964;2022-09-02T14:07:54;99703.44;;;29.38;23.10
29215;BME280;16252;49.816;7.964;2022-09-02T14:10:24;99708.03;;;29.50;23.10
29215;BME280;16252;49.816;7.964;2022-09-02T14:12:55;99573.25;;;28.69;22.89
29215;BME280;16252;49.816;7.964;2022-09-02T14:15:26;99628.50;;;29.08;22.97
29215;BME280;16252;49.816;7.964;2022-09-02T14:18:08;99697.00;;;29.50;23.30
29215;BME280;16252;49.816;7.964;2022-09-02T14:20:34;99622.50;;;28.99;22.99
29215;BME280;16252;49.816;7.964;2022-09-02T14:23:01;99647.13;;;29.17;23.13
29215;BME280;16252;49.816;7.964;2022-09-02T14:25:35;99663.25;;;29.26;23.34
29215;BME280;16252;49.816;7.964;2022-09-02T14:28:06;99623.94;;;29.02;23.28
29215;BME280;16252;49.816;7.964;2022-09-02T14:30:35;99657.31;;;29.17;23.27
29215;BME280;16252;49.816;7.964;2022-09-02T14:38:54;99590.06;;;28.84;23.50
29215;BME280;16252;49.816;7.964;2022-09-02T14:41:29;99500.44;;;28.19;23.50
29215;BME280;16252;49.816;7.964;2022-09-02T14:43:59;99520.88;;;28.23;23.58
29215;BME280;16252;49.816;7.964;2022-09-02T14:46:35;99573.78;;;28.54;23.64
29215;BME280;16252;49.816;7.964;2022-09-02T14:49:09;99621.50;;;28.88;23.58
29215;BME280;16252;49.816;7.964;2022-09-02T14:51:37;99646.72;;;28.97;23.54
29215;BME280;16252;49.816;7.964;2022-09-02T14:54:03;99555.63;;;28.41;23.58
29215;BME280;16252;49.816;7.964;2022-09-02T14:56:50;99625.34;;;28.87;23.54
29215;BME280;16252;49.816;7.964;2022-09-02T14:59:17;99644.94;;;28.91;23.51
29215;BME280;16252;49.816;7.964;2022-09-02T15:01:46;99576.19;;;28.50;23.50
29215;BME280;16252;49.816;7.964;2022-09-02T15:04:13;99540.66;;;28.08;23.84
29215;BME280;16252;49.816;7.964;2022-09-02T15:06:39;99631.78;;;28.64;23.84